KLM152 EHAM-EGLC
Flight info
| Callsign | KLM152 |
|---|---|
| Flight time | N/A |
| Altitude | 20000 |
| Route | IDRID L980 XAMAN |
| Aircraft | A21N/M-SDE2E3FGHIRWXY/LB1 |
Departure
| Time | 2026-04-28 19:24 |
|---|---|
| Airport | Amsterdam Airport Schiphol (EHAM) |
Arrival
| Time | N/A |
|---|---|
| Airport | London City Airport (EGLC) |
| Time | Latitude | Longitude | Altitude | Speed | Heading |
|---|---|---|---|---|---|
| 2026-04-28 18:59 | 52.30881 | 4.77174 | 1 ft | 0 kts | 4° |
| 2026-04-28 19:09 | 52.30866 | 4.77172 | 1 ft | 3 kts | 31° |
| 2026-04-28 19:09 | 52.30852 | 4.77151 | 1 ft | 3 kts | 77° |
| 2026-04-28 19:09 | 52.30851 | 4.77141 | 1 ft | 0 kts | 81° |
| 2026-04-28 19:12 | 52.30851 | 4.77154 | 1 ft | 3 kts | 96° |
| 2026-04-28 19:12 | 52.30846 | 4.77202 | 1 ft | 8 kts | 98° |
| 2026-04-28 19:12 | 52.30841 | 4.77312 | 1 ft | 12 kts | 94° |
| 2026-04-28 19:12 | 52.30835 | 4.77455 | 1 ft | 13 kts | 93° |
| 2026-04-28 19:13 | 52.30852 | 4.77585 | 1 ft | 12 kts | 40° |
| 2026-04-28 19:13 | 52.30928 | 4.77612 | 0 ft | 11 kts | 3° |
| 2026-04-28 19:13 | 52.31008 | 4.77619 | 1 ft | 12 kts | 3° |
| 2026-04-28 19:13 | 52.31111 | 4.77629 | 1 ft | 17 kts | 4° |
| 2026-04-28 19:14 | 52.31246 | 4.77643 | 1 ft | 21 kts | 4° |
| 2026-04-28 19:14 | 52.31391 | 4.77655 | 1 ft | 21 kts | 359° |
| 2026-04-28 19:14 | 52.31513 | 4.77559 | 1 ft | 20 kts | 316° |
| 2026-04-28 19:14 | 52.31577 | 4.77370 | 0 ft | 19 kts | 274° |
| 2026-04-28 19:15 | 52.31572 | 4.77159 | 0 ft | 19 kts | 266° |
| 2026-04-28 19:15 | 52.31564 | 4.76923 | 0 ft | 23 kts | 266° |
| 2026-04-28 19:15 | 52.31555 | 4.76663 | 1 ft | 23 kts | 267° |
| 2026-04-28 19:15 | 52.31549 | 4.76487 | 1 ft | 23 kts | 267° |
| 2026-04-28 19:16 | 52.31537 | 4.76140 | 1 ft | 23 kts | 266° |
| 2026-04-28 19:16 | 52.31527 | 4.75875 | 1 ft | 23 kts | 266° |
| 2026-04-28 19:16 | 52.31518 | 4.75607 | 0 ft | 24 kts | 266° |
| 2026-04-28 19:16 | 52.31509 | 4.75335 | 0 ft | 24 kts | 267° |
| 2026-04-28 19:17 | 52.31500 | 4.75061 | 0 ft | 24 kts | 267° |
| 2026-04-28 19:17 | 52.31491 | 4.74787 | 1 ft | 24 kts | 266° |
| 2026-04-28 19:17 | 52.31481 | 4.74514 | 1 ft | 24 kts | 267° |
| 2026-04-28 19:17 | 52.31513 | 4.74296 | 1 ft | 10 kts | 331° |
| 2026-04-28 19:18 | 52.31642 | 4.74303 | 4 ft | 26 kts | 4° |
| 2026-04-28 19:18 | 52.31831 | 4.74327 | -2 ft | 28 kts | 3° |
| 2026-04-28 19:18 | 52.31995 | 4.74322 | -3 ft | 22 kts | 335° |
| 2026-04-28 19:18 | 52.32036 | 4.74130 | -3 ft | 17 kts | 263° |
| 2026-04-28 19:19 | 52.32037 | 4.73950 | -1 ft | 16 kts | 276° |
| 2026-04-28 19:19 | 52.32049 | 4.73726 | 4 ft | 21 kts | 274° |
| 2026-04-28 19:19 | 52.32058 | 4.73490 | 5 ft | 21 kts | 276° |
| 2026-04-28 19:19 | 52.32130 | 4.73300 | 3 ft | 20 kts | 324° |
| 2026-04-28 19:20 | 52.32235 | 4.73151 | 1 ft | 20 kts | 318° |
| 2026-04-28 19:20 | 52.32347 | 4.72992 | 0 ft | 22 kts | 319° |
| 2026-04-28 19:20 | 52.32460 | 4.72833 | 0 ft | 21 kts | 319° |
| 2026-04-28 19:20 | 52.32575 | 4.72675 | 0 ft | 22 kts | 320° |
| 2026-04-28 19:21 | 52.32681 | 4.72516 | 3 ft | 20 kts | 315° |
| 2026-04-28 19:21 | 52.32741 | 4.72405 | 3 ft | 21 kts | 311° |
| 2026-04-28 19:21 | 52.32846 | 4.72210 | 1 ft | 26 kts | 311° |
| 2026-04-28 19:21 | 52.32966 | 4.71987 | 0 ft | 26 kts | 311° |
| 2026-04-28 19:22 | 52.33085 | 4.71769 | 1 ft | 25 kts | 310° |
| 2026-04-28 19:22 | 52.33149 | 4.71618 | 2 ft | 22 kts | 286° |
| 2026-04-28 19:22 | 52.33009 | 4.71313 | 0 ft | 26 kts | 220° |
| 2026-04-28 19:22 | 52.32917 | 4.71179 | 0 ft | 26 kts | 223° |
| 2026-04-28 19:23 | 52.32881 | 4.70920 | 0 ft | 23 kts | 302° |
| 2026-04-28 19:23 | 52.32953 | 4.70891 | -2 ft | 6 kts | 14° |
| 2026-04-28 19:23 | 52.33139 | 4.70909 | -5 ft | 57 kts | 4° |
| 2026-04-28 19:23 | 52.33750 | 4.70969 | 3 ft | 120 kts | 2° |
| 2026-04-28 19:24 | 52.34772 | 4.71051 | 45 ft | 166 kts | 6° |
| 2026-04-28 19:24 | 52.35976 | 4.71158 | 424 ft | 178 kts | 7° |
| 2026-04-28 19:24 | 52.37164 | 4.71265 | 1261 ft | 164 kts | 11° |
| 2026-04-28 19:24 | 52.38311 | 4.71370 | 1959 ft | 168 kts | 14° |
| 2026-04-28 19:25 | 52.39552 | 4.71513 | 2253 ft | 190 kts | 13° |
| 2026-04-28 19:25 | 52.40950 | 4.71666 | 2481 ft | 213 kts | 12° |
| 2026-04-28 19:25 | 52.42551 | 4.71509 | 2632 ft | 249 kts | 353° |
| 2026-04-28 19:25 | 52.44177 | 4.70155 | 3177 ft | 277 kts | 326° |
| 2026-04-28 19:26 | 52.45578 | 4.67958 | 4273 ft | 279 kts | 312° |
| 2026-04-28 19:26 | 52.46495 | 4.65249 | 5525 ft | 277 kts | 287° |
| 2026-04-28 19:26 | 52.46760 | 4.62087 | 6515 ft | 284 kts | 273° |
| 2026-04-28 19:26 | 52.46783 | 4.58827 | 7438 ft | 287 kts | 270° |
| 2026-04-28 19:27 | 52.46574 | 4.55588 | 8227 ft | 295 kts | 254° |
| 2026-04-28 19:27 | 52.45600 | 4.52604 | 9012 ft | 299 kts | 224° |
| 2026-04-28 19:27 | 52.43989 | 4.50448 | 9883 ft | 301 kts | 213° |
| 2026-04-28 19:27 | 52.42359 | 4.48258 | 10738 ft | 308 kts | 226° |
| 2026-04-28 19:28 | 52.41075 | 4.45290 | 11135 ft | 332 kts | 239° |
| 2026-04-28 19:28 | 52.39923 | 4.41860 | 11449 ft | 355 kts | 242° |
| 2026-04-28 19:28 | 52.38746 | 4.38178 | 11845 ft | 373 kts | 242° |
| 2026-04-28 19:28 | 52.37525 | 4.34369 | 12534 ft | 381 kts | 242° |
| 2026-04-28 19:29 | 52.36282 | 4.30520 | 13392 ft | 384 kts | 242° |
| 2026-04-28 19:29 | 52.35448 | 4.27949 | 13933 ft | 388 kts | 242° |
| 2026-04-28 19:29 | 52.33748 | 4.22741 | 14862 ft | 395 kts | 242° |
| 2026-04-28 19:29 | 52.32444 | 4.18756 | 15579 ft | 399 kts | 242° |
| 2026-04-28 19:30 | 52.31005 | 4.14860 | 16347 ft | 402 kts | 234° |
| 2026-04-28 19:30 | 52.29329 | 4.11163 | 16986 ft | 408 kts | 232° |
| 2026-04-28 19:30 | 52.27577 | 4.07492 | 17669 ft | 412 kts | 231° |
| 2026-04-28 19:30 | 52.25801 | 4.03798 | 18374 ft | 415 kts | 232° |
| 2026-04-28 19:31 | 52.24011 | 4.00076 | 18967 ft | 419 kts | 232° |
| 2026-04-28 19:31 | 52.22199 | 3.96304 | 19516 ft | 424 kts | 232° |
| 2026-04-28 19:31 | 52.20375 | 3.92508 | 20012 ft | 427 kts | 231° |
| 2026-04-28 19:31 | 52.18533 | 3.88676 | 20246 ft | 429 kts | 231° |
| 2026-04-28 19:32 | 52.16688 | 3.84844 | 20277 ft | 431 kts | 231° |
| 2026-04-28 19:32 | 52.14835 | 3.81000 | 20276 ft | 431 kts | 231° |
| 2026-04-28 19:32 | 52.12983 | 3.77161 | 20276 ft | 432 kts | 231° |
| 2026-04-28 19:32 | 52.11124 | 3.73316 | 20272 ft | 433 kts | 231° |
| 2026-04-28 19:33 | 52.09218 | 3.69378 | 20259 ft | 452 kts | 231° |
| 2026-04-28 19:33 | 52.07263 | 3.65346 | 20259 ft | 466 kts | 231° |
| 2026-04-28 19:33 | 52.05239 | 3.61178 | 20262 ft | 471 kts | 231° |
| 2026-04-28 19:33 | 52.03205 | 3.56996 | 20256 ft | 472 kts | 231° |
| 2026-04-28 19:34 | 52.01170 | 3.52815 | 20257 ft | 472 kts | 231° |
| 2026-04-28 19:34 | 51.99144 | 3.48619 | 20269 ft | 472 kts | 231° |
| 2026-04-28 19:34 | 51.97175 | 3.44371 | 20255 ft | 470 kts | 232° |
| 2026-04-28 19:34 | 51.95245 | 3.40100 | 20254 ft | 469 kts | 232° |
| 2026-04-28 19:35 | 51.93324 | 3.35809 | 20249 ft | 471 kts | 232° |
| 2026-04-28 19:35 | 51.91398 | 3.31510 | 20243 ft | 472 kts | 232° |
| 2026-04-28 19:35 | 51.89454 | 3.27187 | 20243 ft | 473 kts | 232° |
| 2026-04-28 19:35 | 51.87518 | 3.22892 | 20243 ft | 472 kts | 233° |
| 2026-04-28 19:36 | 51.85882 | 3.18341 | 20231 ft | 474 kts | 245° |
| 2026-04-28 19:36 | 51.84858 | 3.13277 | 20240 ft | 475 kts | 256° |
| 2026-04-28 19:36 | 51.84225 | 3.07996 | 20249 ft | 474 kts | 261° |
| 2026-04-28 19:36 | 51.83797 | 3.02742 | 20249 ft | 475 kts | 264° |
| 2026-04-28 19:37 | 51.83465 | 2.97420 | 20249 ft | 475 kts | 265° |
| 2026-04-28 19:37 | 51.83267 | 2.93896 | 20249 ft | 475 kts | 265° |
| 2026-04-28 19:37 | 51.82870 | 2.86772 | 20259 ft | 477 kts | 265° |
| 2026-04-28 19:37 | 51.82555 | 2.81420 | 20258 ft | 479 kts | 264° |
| 2026-04-28 19:38 | 51.82219 | 2.76053 | 20260 ft | 480 kts | 264° |
| 2026-04-28 19:38 | 51.81868 | 2.70696 | 20259 ft | 479 kts | 264° |
| 2026-04-28 19:38 | 51.81507 | 2.65354 | 20260 ft | 479 kts | 263° |
| 2026-04-28 19:38 | 51.81135 | 2.59992 | 20260 ft | 480 kts | 263° |
| 2026-04-28 19:39 | 51.80767 | 2.54698 | 20258 ft | 478 kts | 263° |
| 2026-04-28 19:39 | 51.80401 | 2.49467 | 20047 ft | 460 kts | 263° |
| 2026-04-28 19:39 | 51.80045 | 2.44402 | 19691 ft | 446 kts | 263° |
| 2026-04-28 19:39 | 51.79699 | 2.39499 | 19333 ft | 434 kts | 263° |
| 2026-04-28 19:40 | 51.79359 | 2.34694 | 18787 ft | 427 kts | 263° |
| 2026-04-28 19:40 | 51.79022 | 2.29972 | 18132 ft | 416 kts | 263° |
| 2026-04-28 19:40 | 51.78697 | 2.25431 | 17481 ft | 400 kts | 262° |
| 2026-04-28 19:40 | 51.78400 | 2.21046 | 16834 ft | 386 kts | 263° |
| 2026-04-28 19:41 | 51.78146 | 2.16802 | 16202 ft | 373 kts | 264° |
| 2026-04-28 19:41 | 51.77906 | 2.12687 | 15575 ft | 363 kts | 263° |
| 2026-04-28 19:41 | 51.77671 | 2.08681 | 14967 ft | 355 kts | 263° |